Home > Products > Valid Products > TAF

000
FTUS43 KILX 241100
TAFCMI
TAF
KCMI 241136Z 2412/2512 10011KT P6SM SCT120 BKN250
     FM241500 14016G26KT P6SM BKN100
     FM242200 15018G28KT P6SM VCSH OVC070
     FM250100 14012G20KT 5SM -TSRA OVC040CB
     FM250400 12010KT 6SM -RA VCTS OVC015CB
     FM250800 34013KT P6SM VCSH SCT006 OVC012=



000
FTUS43 KILX 241100
TAFPIA
TAF
KPIA 241136Z 2412/2512 12010KT P6SM SCT120 BKN250
     FM241400 15016G25KT P6SM SCT080 OVC250
     FM241900 17018G28KT P6SM VCSH OVC050
     FM242200 17013G23KT 4SM -RA VCTS OVC035CB
     FM250200 14010KT 6SM -RA BR SCT007 OVC015
     FM250600 33012KT P6SM VCSH OVC012=



000
FTUS43 KILX 241100
TAFSPI
TAF
KSPI 241136Z 2412/2512 13015KT P6SM BKN100
     FM241400 15015G30KT P6SM SCT090 OVC250
     FM241900 16018G28KT P6SM VCSH OVC060
     FM242300 16015G25KT 5SM -TSRA BR OVC035CB
     FM250200 14010KT 6SM -RA VCTS OVC015CB
     FM250600 33012KT P6SM VCSH SCT006 OVC012=



000
FTUS43 KILX 241100
TAFBMI
TAF
KBMI 241136Z 2412/2512 13015KT P6SM SCT100 BKN250
     FM241500 14019G30KT P6SM SCT080 OVC250
     FM242000 15018G28KT P6SM SCT060 BKN150
     FM250000 15016G26KT 4SM -RA VCTS OVC035CB
     FM250300 13013G23KT 6SM -RA BR SCT006 OVC012
     FM250700 34014KT P6SM VCSH SCT004 OVC010=



000
FTUS43 KILX 241100
TAFDEC
TAF
KDEC 241136Z 2412/2512 12015KT P6SM SCT100 BKN250
     FM241400 15015G30KT P6SM SCT100 OVC250
     FM242000 16018G28KT P6SM VCSH OVC060
     FM250000 16015G25KT 5SM -TSRA BR OVC035CB
     FM250300 13010KT 6SM -RA VCTS OVC015CB
     FM250700 33012KT P6SM VCSH SCT006 OVC012=



000
FTUS43 KILX 240500
TAFCMI
TAF
KCMI 240520Z 2406/2506 10011KT P6SM SCT120
     FM241700 14016G26KT P6SM BKN100
     FM242300 16018G28KT P6SM VCSH OVC070
     FM250200 14012G20KT 4SM -RA VCTS OVC040CB=



000
FTUS43 KILX 240500
TAFDEC
TAF
KDEC 240520Z 2406/2506 12010KT P6SM BKN120
     FM241600 14014G28KT P6SM BKN100
     FM242100 16017G27KT P6SM VCSH OVC050
     FM250100 15013G21KT 4SM -RA VCTS OVC035CB=



000
FTUS43 KILX 240500
TAFPIA
TAF
KPIA 240520Z 2406/2506 12010KT P6SM SCT120
     FM241400 15016G30KT P6SM BKN080
     FM241900 17018G28KT P6SM VCSH OVC050
     FM242300 18013G23KT 4SM -RA VCTS OVC035CB
     FM250500 14012KT P6SM VCSH OVC020=



000
FTUS43 KILX 240500
TAFBMI
TAF
KBMI 240520Z 2406/2506 09008KT P6SM FEW110
     FM241500 14019G30KT P6SM BKN090
     FM242000 17018G28KT P6SM VCSH OVC060
     FM250000 15016G26KT 4SM -RA VCTS OVC035CB=



000
FTUS43 KILX 240500
TAFSPI
TAF
KSPI 240520Z 2406/2506 13009KT P6SM BKN110
     FM241400 15015G30KT P6SM BKN090
     FM241900 16018G28KT P6SM VCSH OVC050
     FM242300 17013G23KT 4SM -RA VCTS OVC035CB
     FM250500 15012KT P6SM VCSH OVC020=



000
FTUS43 KILX 240400 AAB
TAFPIA
TAF AMD
KPIA 240418Z 2404/2424 12010KT P6SM SCT120
     FM241300 15015KT P6SM VCSH BKN040
     FM241900 17017G27KT P6SM VCTS OVC040CB=



000
FTUS43 KILX 240100 AAA
TAFPIA
TAF AMD
KPIA 240155Z 2402/2424 08013KT P6SM OVC100
     FM241300 15015KT P6SM VCSH BKN040
     FM241900 17017G27KT P6SM VCTS OVC040CB=



000
FTUS43 KILX 232300 RRA
TAFCMI
TAF
KCMI 232345Z 2400/2424 09006KT P6SM SCT100
     FM240200 10012KT P6SM VCSH BKN080
     FM240500 11009KT P6SM BKN100
     FM241600 14013KT P6SM VCSH BKN050
     FM242200 16018G30KT P6SM VCTS OVC050CB=



000
FTUS43 KILX 232300 RRA
TAFDEC
TAF
KDEC 232345Z 2400/2424 10007KT P6SM BKN110
     FM240300 12012KT P6SM BKN050
     FM241600 14014KT P6SM VCSH BKN050
     FM242100 16018G30KT P6SM VCTS OVC050CB=



000
FTUS43 KILX 232300 RRA
TAFBMI
TAF
KBMI 232345Z 2400/2424 12007KT P6SM VCSH BKN100
     FM240300 11010KT P6SM BKN080
     FM241500 14015G22KT P6SM VCSH BKN040
     FM242000 16018G30KT P6SM VCTS OVC040CB=



000
FTUS43 KILX 232300 RRA
TAFSPI
TAF
KSPI 232345Z 2400/2424 09009KT P6SM BKN100 OVC110
     FM240200 12012KT P6SM BKN050
     FM241400 15015G23KT P6SM VCSH BKN040
     FM241800 17018G28KT P6SM VCTS OVC040CB=



000
FTUS43 KILX 232300 RRA
TAFPIA
TAF
KPIA 232345Z 2400/2424 14008KT P6SM -RA OVC090
     FM240200 12012KT P6SM BKN070
     FM241300 15015KT P6SM VCSH BKN040
     FM241900 17017G27KT P6SM VCTS OVC040CB=



000
FTUS43 KILX 232300 AAA
TAFBMI
TAF AMD
KBMI 232316Z 2323/2418 12010KT P6SM VCSH BKN090
     FM240200 11014KT P6SM BKN050
     FM241500 14015KT P6SM VCSH BKN040=



000
FTUS43 KILX 232300 AAA
TAFPIA
TAF AMD
KPIA 232315Z 2323/2418 15005KT P6SM -RA OVC090
     FM240000 12012KT P6SM BKN070
     FM241300 15015KT P6SM VCSH BKN040=



000
FTUS43 KILX 231700
TAFCMI
TAF
KCMI 231731Z 2318/2418 05010KT P6SM SCT100
     FM232000 10010KT P6SM BKN100
     FM240400 10012KT P6SM BKN080
     FM241600 14013KT P6SM VCSH BKN050=



000
FTUS43 KILX 231700
TAFPIA
TAF
KPIA 231731Z 2318/2418 12010KT P6SM BKN100
     FM240200 12012KT P6SM BKN050
     FM241300 15015KT P6SM VCSH BKN040=



000
FTUS43 KILX 231700
TAFBMI
TAF
KBMI 231731Z 2318/2418 11010KT P6SM SCT100
     FM232000 10010KT P6SM BKN100
     FM240200 11014KT P6SM BKN050
     FM241500 14015KT P6SM VCSH BKN040=



000
FTUS43 KILX 231700
TAFDEC
TAF
KDEC 231731Z 2318/2418 07010KT P6SM SKC
     FM232000 10010KT P6SM BKN100
     FM240300 12012KT P6SM BKN050
     FM241600 14014KT P6SM VCSH BKN050=



000
FTUS43 KILX 231700
TAFSPI
TAF
KSPI 231731Z 2318/2418 12010KT P6SM SCT100
     FM231900 10010KT P6SM BKN100
     FM240200 12012KT P6SM BKN050
     FM241400 15015KT P6SM VCSH BKN040=



000
FTUS43 KILX 231100
TAFSPI
TAF
KSPI 231136Z 2312/2412 10010KT P6SM SCT100
     FM231500 12010KT P6SM BKN090
     FM240200 12012KT P6SM BKN050=



000
FTUS43 KILX 231100
TAFCMI
TAF
KCMI 231136Z 2312/2412 06009KT P6SM SCT100
     FM231700 09010KT P6SM SCT100 BKN250
     FM240400 10012KT P6SM BKN080=



000
FTUS43 KILX 231100
TAFDEC
TAF
KDEC 231136Z 2312/2412 08009KT P6SM SCT100
     FM231600 10010KT P6SM BKN090
     FM240300 12012KT P6SM BKN050=



000
FTUS43 KILX 231100
TAFBMI
TAF
KBMI 231136Z 2312/2412 05009KT P6SM SCT100
     FM231600 10010KT P6SM BKN080
     FM240200 11014KT P6SM BKN050=



000
FTUS43 KILX 231100
TAFPIA
TAF
KPIA 231136Z 2312/2412 10008KT P6SM SCT100
     FM231500 12010KT P6SM BKN080
     FM240200 12012KT P6SM BKN050=



000
FTUS43 KILX 230500
TAFBMI
TAF
KBMI 230520Z 2306/2406 05009KT P6SM SKC
     FM231800 10008KT P6SM BKN090
     FM240200 11012KT P6SM BKN050=



000
FTUS43 KILX 230500
TAFCMI
TAF
KCMI 230520Z 2306/2406 05010G18KT P6SM SKC
     FM230800 06009KT P6SM SCT250
     FM232000 10008KT P6SM SCT100
     FM240300 10010KT P6SM BKN060=



000
FTUS43 KILX 230500
TAFSPI
TAF
KSPI 230520Z 2306/2406 35005KT P6SM SKC
     FM231500 12007KT P6SM BKN090
     FM240200 11012KT P6SM BKN050=



000
FTUS43 KILX 230500
TAFPIA
TAF
KPIA 230520Z 2306/2406 35003KT P6SM SKC
     FM231600 12008KT P6SM BKN080
     FM240200 11011KT P6SM BKN050=



000
FTUS43 KILX 230500
TAFDEC
TAF
KDEC 230520Z 2306/2406 01006KT P6SM SKC
     FM231800 10008KT P6SM BKN100
     FM240300 12010KT P6SM BKN060=



000
FTUS43 KILX 230400 AAA
TAFCMI
TAF AMD
KCMI 230430Z 2305/2324 05010G18KT P6SM SKC
     FM230700 06008KT P6SM SCT250
     FM232000 10010KT P6SM SCT100=



000
FTUS43 KILX 230400 AAA
TAFSPI
TAF AMD
KSPI 230430Z 2305/2324 35005KT P6SM SKC
     FM230500 06005KT P6SM SCT250
     FM231400 12010KT P6SM BKN090=



000
FTUS43 KILX 230400 AAA
TAFDEC
TAF AMD
KDEC 230430Z 2305/2324 01006KT P6SM SKC
     FM230600 06005KT P6SM SCT250
     FM231800 10010KT P6SM BKN100=



000
FTUS43 KILX 230400 AAA
TAFBMI
TAF AMD
KBMI 230430Z 2305/2324 05009KT P6SM SKC
     FM230600 04006KT P6SM SCT250
     FM231800 11010KT P6SM BKN110=



000
FTUS43 KILX 230400 AAA
TAFPIA
TAF AMD
KPIA 230430Z 2305/2324 35003KT P6SM SKC
     FM230500 05004KT P6SM SCT250
     FM231500 12010KT P6SM BKN100=



000
FTUS43 KILX 222300 RRA
TAFCMI
TAF
KCMI 222352Z 2300/2324 34013KT P6SM SKC
     FM230100 35009KT P6SM SKC
     FM230600 06008KT P6SM BKN250=



000
FTUS43 KILX 222300 RRA
TAFSPI
TAF
KSPI 222352Z 2300/2324 33013KT P6SM SKC
     FM230100 35007KT P6SM SKC
     FM230500 06005KT P6SM BKN250=



000
FTUS43 KILX 222300 RRA
TAFPIA
TAF
KPIA 222352Z 2300/2324 31010G18KT P6SM SKC
     FM230100 35008KT P6SM SKC
     FM230500 05004KT P6SM BKN250=



000
FTUS43 KILX 222300 RRA
TAFBMI
TAF
KBMI 222352Z 2300/2324 34013KT P6SM SKC
     FM230100 36008KT P6SM SKC
     FM230600 04006KT P6SM BKN250=



000
FTUS43 KILX 222300 RRA
TAFDEC
TAF
KDEC 222352Z 2300/2324 32013G20KT P6SM SKC
     FM230100 35007KT P6SM SKC
     FM230600 06005KT P6SM BKN250=



000
FTUS43 KILX 221700
TAFCMI
TAF
KCMI 221724Z 2218/2318 35013G23KT P6SM SKC
     FM230000 35009KT P6SM SKC
     FM230600 06008KT P6SM BKN250=



000
FTUS43 KILX 221700
TAFPIA
TAF
KPIA 221724Z 2218/2318 36012G20KT P6SM SKC
     FM230000 35006KT P6SM SKC
     FM230500 05004KT P6SM BKN250=



000
FTUS43 KILX 221700
TAFDEC
TAF
KDEC 221724Z 2218/2318 34015G23KT P6SM SKC
     FM230000 35007KT P6SM SKC
     FM230600 06005KT P6SM BKN250=



000
FTUS43 KILX 221700
TAFBMI
TAF
KBMI 221724Z 2218/2318 35015G23KT P6SM SKC
     FM230000 36008KT P6SM SKC
     FM230600 04006KT P6SM BKN250=



000
FTUS43 KILX 221700
TAFSPI
TAF
KSPI 221724Z 2218/2318 34015G21KT P6SM SKC
     FM230000 35007KT P6SM SKC
     FM230500 06005KT P6SM BKN250=



000
FTUS43 KILX 221100 RRA
TAFCMI
TAF
KCMI 221158Z 2212/2312 35013G23KT P6SM SKC
     FM230000 35009KT P6SM SKC
     FM230600 05008KT P6SM BKN250=



000
FTUS43 KILX 221100 CCA
TAFCMI
TAF COR
KCMI 221157Z 2212/2312 32013G23KT P6SM SKC
     FM230000 35009KT P6SM SKC
     FM230600 05008KT P6SM BKN250=



000
FTUS43 KILX 221100
TAFBMI
TAF
KBMI 221126Z 2212/2312 36015KT P6SM SKC
     FM221400 35015G23KT P6SM SKC
     FM230000 36008KT P6SM SKC
     FM230600 03006KT P6SM BKN250=



000
FTUS43 KILX 221100
TAFDEC
TAF
KDEC 221126Z 2212/2312 35015KT P6SM SKC
     FM221400 34015G23KT P6SM SKC
     FM230000 35007KT P6SM SKC
     FM230600 05005KT P6SM BKN250=



000
FTUS43 KILX 221100
TAFCMI
TAF
KCMI 221126Z 2212/2312 32015KT P6SM SCT018
     FM221400 34015G23KT P6SM SKC
     FM230000 35007KT P6SM SKC=



000
FTUS43 KILX 221100
TAFPIA
TAF
KPIA 221126Z 2212/2312 35012KT P6SM SKC
     FM221400 36012G20KT P6SM SKC
     FM230000 35006KT P6SM SKC
     FM230500 04004KT P6SM BKN250=



000
FTUS43 KILX 221100
TAFSPI
TAF
KSPI 221126Z 2212/2312 34015KT P6SM SKC
     FM221400 34015G21KT P6SM SKC
     FM230000 35007KT P6SM SKC
     FM230500 05005KT P6SM BKN250=



000
FTUS43 KILX 221000 AAB
TAFCMI
TAF AMD
KCMI 221051Z 2211/2306 32015KT P6SM SCT018
      TEMPO 2211/2212 BKN018
     FM221400 34015G22KT P6SM SKC
     FM230000 35007KT P6SM SKC=



000
FTUS43 KILX 221000 AAA
TAFBMI
TAF AMD
KBMI 221001Z 2210/2306 34015KT P6SM SKC
     FM221400 34014G22KT P6SM SKC
     FM230000 36007KT P6SM SKC=



000
FTUS43 KILX 221000 AAB
TAFPIA
TAF AMD
KPIA 221000Z 2210/2306 35010KT P6SM SKC
     FM221400 34012G20KT P6SM SKC
     FM230000 36006KT P6SM SKC=



000
FTUS43 KILX 220800 AAA
TAFSPI
TAF AMD
KSPI 220816Z 2208/2306 33014KT P6SM SKC
     FM221400 34014G20KT P6SM SKC
     FM230000 35006KT P6SM SKC=



000
FTUS43 KILX 220600 AAA
TAFCMI
TAF AMD
KCMI 220605Z 2206/2306 28013KT P6SM SCT025 BKN050
      TEMPO 2206/2208 4SM BR BKN025
     FM220800 32015KT P6SM SKC
     FM221400 34015G22KT P6SM SKC
     FM230000 35007KT P6SM SKC=



000
FTUS43 KILX 220600 AAA
TAFPIA
TAF AMD
KPIA 220603Z 2206/2306 32014KT P6SM SKC
     FM221400 34012G20KT P6SM SKC
     FM230000 36006KT P6SM SKC=



000
FTUS43 KILX 220500
TAFBMI
TAF
KBMI 220520Z 2206/2306 27008KT P6SM BKN050
     FM220700 31015KT P6SM SKC
     FM221400 34014G22KT P6SM SKC
     FM230000 36007KT P6SM SKC=



000
FTUS43 KILX 220500
TAFPIA
TAF
KPIA 220520Z 2206/2306 30012KT P6SM SKC
     FM221400 34012G20KT P6SM SKC
     FM230000 36006KT P6SM SKC=



000
FTUS43 KILX 220500
TAFSPI
TAF
KSPI 220520Z 2206/2306 27006KT P6SM BKN050
      TEMPO 2206/2207 4SM BR
     FM220700 31014KT P6SM SKC
      TEMPO 2207/2210 3SM BR
     FM221400 34014G20KT P6SM SKC
     FM230000 35006KT P6SM SKC=



000
FTUS43 KILX 220500
TAFCMI
TAF
KCMI 220520Z 2206/2306 25006KT P6SM BKN050
     FM220800 31015KT P6SM SKC
     FM221400 34015G22KT P6SM SKC
     FM230000 35007KT P6SM SKC=



000
FTUS43 KILX 220500
TAFDEC
TAF
KDEC 220520Z 2206/2306 27006KT P6SM BKN050
     FM220800 31014KT P6SM SKC
     FM221400 34014G20KT P6SM SKC
     FM230000 35007KT P6SM SKC=



000
FTUS43 KILX 212300
TAFPIA
TAF
KPIA 212329Z 2200/2224 27006KT P6SM VCSH BKN080
     FM220200 30006KT P6SM BKN200
     FM220500 35014KT P6SM SKC
     FM221400 34013G20KT P6SM SKC=



000
FTUS43 KILX 212300
TAFCMI
TAF
KCMI 212329Z 2200/2224 22012KT P6SM VCSH BKN080
     FM220400 27006KT P6SM BKN200
     FM220800 35015KT P6SM SKC
     FM221400 34015G22KT P6SM SKC=



000
FTUS43 KILX 212300
TAFSPI
TAF
KSPI 212329Z 2200/2224 27006KT P6SM VCSH BKN080
     FM220300 31006KT P6SM BKN200
     FM220700 35014KT P6SM SKC
     FM221400 34014G20KT P6SM SKC=



000
FTUS43 KILX 212300
TAFDEC
TAF
KDEC 212329Z 2200/2224 25007KT P6SM VCSH BKN080
     FM220300 27006KT P6SM BKN200
     FM220800 35014KT P6SM SKC
     FM221400 34014G21KT P6SM SKC=



000
FTUS43 KILX 212300
TAFBMI
TAF
KBMI 212329Z 2200/2224 27007KT P6SM VCSH BKN080
     FM220300 31007KT P6SM BKN200
     FM220700 35014KT P6SM SKC
     FM221400 34014G20KT P6SM SKC=



000
FTUS43 KILX 212200 AAA
TAFCMI
TAF AMD
KCMI 212211Z 2122/2218 21014KT P6SM -SHRA VCTS SCT040CB BKN080
     FM220300 26012KT P6SM VCSH BKN050
     FM220600 33012KT P6SM SKC=



000
FTUS43 KILX 212200 AAB
TAFBMI
TAF AMD
KBMI 212211Z 2122/2218 22012KT P6SM -SHRA VCTS SCT050CB BKN080
     FM220200 29012KT P6SM VCSH OVC040
     FM220700 34015KT P6SM SKC=



000
FTUS43 KILX 211800 AAA
TAFBMI
TAF AMD
KBMI 211824Z 2118/2218 22012G22KT P6SM SHRA VCTS SCT050CB BKN120
      TEMPO 2118/2121 2SM +RA BKN040CB
     FM220200 29012KT P6SM VCSH OVC040
     FM220700 34015KT P6SM SKC=



000
FTUS43 KILX 211700
TAFBMI
TAF
KBMI 211723Z 2118/2218 22012KT P6SM SHRA VCTS BKN060CB
      TEMPO 2118/2121 2SM +RA BKN040CB
     FM220200 29012KT P6SM VCSH OVC040
     FM220700 34015KT P6SM SKC=



000
FTUS43 KILX 211700
TAFSPI
TAF
KSPI 211723Z 2118/2218 25010KT 6SM -SHRA VCTS SCT040CB BKN070
      TEMPO 2118/2119 2SM RA BR
     FM220100 27005KT P6SM VCSH BKN045
     FM220400 33012KT P6SM SKC=



000
FTUS43 KILX 211700
TAFDEC
TAF
KDEC 211723Z 2118/2218 24009KT P6SM VCSH BKN070
     FM212000 25010KT 6SM -SHRA VCTS SCT040CB BKN070
     FM220200 27005KT P6SM VCSH BKN050
     FM220500 33012KT P6SM SKC=



000
FTUS43 KILX 211700
TAFCMI
TAF
KCMI 211723Z 2118/2218 23010G20KT P6SM VCSH BKN070
     FM212000 24012KT 6SM -SHRA VCTS SCT040CB BKN070
     FM220300 26012KT P6SM VCSH BKN050
     FM220600 33012KT P6SM SKC=



000
FTUS43 KILX 211700
TAFPIA
TAF
KPIA 211723Z 2118/2218 24013KT 6SM -SHRA VCTS SCT040CB BKN070
     FM220100 29010KT P6SM VCSH OVC045
     FM220600 35010KT P6SM SKC=



000
FTUS43 KILX 211700 AAB
TAFSPI
TAF AMD
KSPI 211703Z 2117/2212 19012KT 4SM RA BKN060
      TEMPO 2117/2118 1 1/2SM +RA BKN050
     FM211800 25010KT 6SM -SHRA VCTS SCT040CB BKN070
     FM220100 27005KT P6SM VCSH BKN045
     FM220400 33012KT P6SM SKC=



000
FTUS43 KILX 211600 AAA
TAFSPI
TAF AMD
KSPI 211637Z 2117/2212 19012KT 4SM +RA BKN060
     FM211800 25010KT 6SM -SHRA VCTS SCT040CB BKN070
     FM220100 27005KT P6SM VCSH BKN045
     FM220400 33012KT P6SM SKC=



    US Dept of Commerce
    National Oceanic and Atmospheric Administration
    National Weather Service
    1325 East West Highway
    Silver Spring, MD 20910
    Page Author: NWS Internet Services Team
Disclaimer
Information Quality
Credits
Glossary
Privacy Policy
Freedom of Information Act (FOIA)
About Us
Career Opportunities